Time;durP1;ratioP1;P1;durP2;ratioP2;P2;SDS_P1;SDS_P2;PMS_P1;PMS_P2;Temp;Humidity;BMP_temperature;BMP_pressure;BME280_temperature;BME280_humidity;BME280_pressure;Samples;Min_cycle;Max_cycle;Signal;HPM_P1;HPM_P2
2023/06/01 00:01:37;;;;;;;26.00;7.50;;;;;;;14.96;64.83;101260.03;107434;1253;110421;-59
2023/06/01 00:04:07;;;;;;;14.70;6.90;;;;;;;14.94;65.45;101256.31;107375;1254;111521;-60
2023/06/01 00:06:35;;;;;;;13.80;7.20;;;;;;;14.90;65.15;101257.60;107409;1254;97904;-61
2023/06/01 00:09:04;;;;;;;16.40;6.80;;;;;;;14.86;65.99;101260.80;107439;1254;99636;-60
2023/06/01 00:11:33;;;;;;;15.70;7.00;;;;;;;14.81;65.74;101256.98;107472;1254;112714;-62
2023/06/01 00:14:02;;;;;;;17.90;6.90;;;;;;;14.80;65.52;101253.89;107367;1254;108772;-60
2023/06/01 00:16:30;;;;;;;20.60;7.20;;;;;;;14.80;65.40;101251.02;107398;1254;106788;-58
2023/06/01 00:19:01;;;;;;;19.30;7.20;;;;;;;14.81;65.47;101251.04;107397;1254;97849;-60
2023/06/01 00:21:32;;;;;;;18.60;6.90;;;;;;;14.82;65.60;101250.80;107461;1257;97838;-61
2023/06/01 00:24:02;;;;;;;18.50;6.60;;;;;;;14.84;65.64;101249.27;107453;1254;112393;-59
2023/06/01 00:26:31;;;;;;;22.80;6.90;;;;;;;14.85;65.89;101248.30;107371;1254;109376;-62
2023/06/01 00:29:00;;;;;;;14.10;5.40;;;;;;;14.84;65.64;101246.39;107292;1257;108218;-61
2023/06/01 00:31:29;;;;;;;15.20;5.90;;;;;;;14.82;65.91;101250.20;107436;1254;98060;-59
2023/06/01 00:33:57;;;;;;;21.10;6.50;;;;;;;14.80;65.66;101256.20;107425;1254;98904;-58
2023/06/01 00:36:25;;;;;;;19.80;5.50;;;;;;;14.77;65.59;101254.94;107435;1254;110930;-60
2023/06/01 00:39:01;;;;;;;10.80;6.10;;;;;;;14.74;65.77;101256.85;107402;1257;110566;-60
2023/06/01 00:41:33;;;;;;;13.40;6.10;;;;;;;14.69;66.80;101258.65;107321;1258;107775;-61
2023/06/01 00:44:03;;;;;;;14.10;5.90;;;;;;;14.61;67.36;101257.45;107254;1259;97932;-60
2023/06/01 00:46:32;;;;;;;18.30;6.20;;;;;;;14.57;67.28;101259.83;107198;1254;97848;-59
2023/06/01 00:49:01;;;;;;;20.20;6.60;;;;;;;14.51;66.79;101255.34;107434;1253;111421;-60
2023/06/01 00:51:35;;;;;;;18.00;5.70;;;;;;;14.49;67.00;101256.82;107312;1254;109075;-60
2023/06/01 00:54:04;;;;;;;20.10;6.20;;;;;;;14.44;67.66;101261.27;107400;1257;107167;-63
2023/06/01 00:56:35;;;;;;;18.00;5.60;;;;;;;14.37;67.50;101261.38;107265;1254;97902;-61
2023/06/01 00:59:06;;;;;;;20.90;5.80;;;;;;;14.35;67.47;101258.33;107433;1254;97841;-59
2023/06/01 01:01:36;;;;;;;9.60;5.60;;;;;;;14.36;67.64;101265.11;107477;1254;110821;-60
2023/06/01 01:04:05;;;;;;;12.30;5.30;;;;;;;14.34;68.31;101265.14;107502;1258;109138;-60
2023/06/01 01:06:49;;;;;;;12.10;5.20;;;;;;;14.29;68.54;101263.13;107254;1259;107470;-61
2023/06/01 01:09:44;;;;;;;16.40;5.80;;;;;;;14.21;68.94;101262.24;107438;1254;97909;-60
2023/06/01 01:12:19;;;;;;;14.50;5.40;;;;;;;14.17;68.42;101261.85;107328;1259;97736;-61
2023/06/01 01:15:00;;;;;;;14.70;6.00;;;;;;;14.16;68.32;101262.38;107483;1254;111054;-60
2023/06/01 01:17:38;;;;;;;14.70;5.70;;;;;;;14.15;68.03;101260.81;107297;1254;109352;-60
2023/06/01 01:20:22;;;;;;;15.20;6.00;;;;;;;14.14;68.09;101264.34;107321;1255;108338;-61
2023/06/01 01:23:10;;;;;;;15.20;5.10;;;;;;;14.11;68.29;101269.73;107447;1254;97851;-60
2023/06/01 01:25:45;;;;;;;20.90;6.20;;;;;;;14.09;68.05;101271.52;107273;1256;97714;-60
2023/06/01 01:28:46;;;;;;;13.30;5.70;;;;;;;14.09;68.03;101274.39;107326;1256;113539;-59
2023/06/01 01:31:18;;;;;;;13.20;6.20;;;;;;;14.07;67.92;101275.30;107499;1254;109896;-59
2023/06/01 01:33:49;;;;;;;16.90;5.70;;;;;;;14.09;67.83;101275.46;107391;1254;108756;-60
2023/06/01 01:36:18;;;;;;;18.60;6.40;;;;;;;14.07;67.90;101279.63;107413;1254;97848;-60
2023/06/01 01:38:47;;;;;;;19.40;5.60;;;;;;;14.02;68.20;101276.45;107482;1253;99648;-60
2023/06/01 01:41:15;;;;;;;17.70;5.60;;;;;;;13.97;68.34;101276.64;107502;1254;112517;-60
2023/06/01 01:43:45;;;;;;;20.50;7.10;;;;;;;13.95;68.40;101274.30;107255;1255;110231;-61
2023/06/01 01:46:26;;;;;;;14.00;5.30;;;;;;;13.94;68.52;101276.30;107359;1255;106833;-60
2023/06/01 01:49:10;;;;;;;14.70;5.20;;;;;;;13.89;68.77;101279.14;107406;1257;97899;-59
2023/06/01 01:51:57;;;;;;;15.90;6.00;;;;;;;13.80;69.61;101284.14;107459;1254;97793;-59
2023/06/01 01:54:28;;;;;;;15.10;6.40;;;;;;;13.73;69.09;101287.70;107318;1254;111579;-60
2023/06/01 01:56:58;;;;;;;16.40;5.60;;;;;;;13.72;68.88;101294.59;107407;1254;108980;-59
2023/06/01 01:59:27;;;;;;;16.10;5.70;;;;;;;13.72;69.17;101297.31;107274;1254;109649;-60
2023/06/01 02:01:55;;;;;;;15.80;5.80;;;;;;;13.73;68.99;101297.74;107507;1254;97832;-60
2023/06/01 02:04:24;;;;;;;12.80;5.60;;;;;;;13.73;68.86;101295.61;107314;1254;98436;-60
2023/06/01 02:06:53;;;;;;;13.70;5.30;;;;;;;13.73;68.82;101293.11;107309;1254;111984;-60
2023/06/01 02:09:22;;;;;;;11.10;5.00;;;;;;;13.71;68.68;101292.20;107429;1254;109993;-59
2023/06/01 02:11:51;;;;;;;17.10;4.90;;;;;;;13.66;69.23;101286.52;107386;1254;108790;-59
2023/06/01 02:14:20;;;;;;;12.10;5.50;;;;;;;13.64;69.30;101287.30;107413;1254;97738;-59
2023/06/01 02:16:48;;;;;;;16.20;5.40;;;;;;;13.61;69.14;101285.16;107442;1254;98386;-59
2023/06/01 02:19:17;;;;;;;18.00;5.40;;;;;;;13.58;69.93;101286.55;107434;1254;111690;-59
2023/06/01 02:21:45;;;;;;;19.10;5.20;;;;;;;13.53;69.75;101285.55;107269;1257;109601;-60
2023/06/01 02:24:14;;;;;;;18.70;5.70;;;;;;;13.51;69.61;101290.63;107416;1254;108254;-59
2023/06/01 02:26:42;;;;;;;12.30;5.10;;;;;;;13.51;69.75;101290.31;107302;1254;97825;-58
2023/06/01 02:29:13;;;;;;;14.00;5.10;;;;;;;13.49;70.12;101288.83;107419;1254;97832;-59
2023/06/01 02:31:41;;;;;;;16.20;5.20;;;;;;;13.48;69.96;101291.22;107479;1254;111509;-58
2023/06/01 02:34:09;;;;;;;16.00;5.60;;;;;;;13.50;69.83;101289.48;107477;1254;108666;-60
2023/06/01 02:36:38;;;;;;;15.40;5.50;;;;;;;13.51;69.70;101293.38;107427;1254;108116;-59
2023/06/01 02:39:07;;;;;;;14.50;5.00;;;;;;;13.51;69.65;101296.37;107267;1254;97859;-60
2023/06/01 02:41:35;;;;;;;18.20;5.40;;;;;;;13.49;69.61;101301.15;107473;1254;97906;-61
2023/06/01 02:44:04;;;;;;;10.70;4.80;;;;;;;13.46;69.44;101299.74;107258;1256;111946;-61
2023/06/01 02:46:32;;;;;;;16.70;5.80;;;;;;;13.45;69.38;101292.23;107432;1254;108169;-59
2023/06/01 02:49:03;;;;;;;17.00;6.00;;;;;;;13.45;69.50;101293.46;107387;1257;107264;-60
2023/06/01 02:51:32;;;;;;;17.10;5.80;;;;;;;13.49;69.51;101295.02;107394;1254;97831;-61
2023/06/01 02:54:09;;;;;;;10.00;5.20;;;;;;;13.51;69.28;101297.82;107363;1257;97846;-60
2023/06/01 02:56:37;;;;;;;18.90;5.80;;;;;;;13.53;69.14;101292.55;107268;1257;111063;-58
2023/06/01 02:59:08;;;;;;;17.00;6.00;;;;;;;13.56;69.04;101295.60;107366;1257;109850;-59
2023/06/01 03:01:44;;;;;;;19.10;5.80;;;;;;;13.57;68.97;101295.09;107375;1257;107428;-59
2023/06/01 03:04:13;;;;;;;18.80;6.10;;;;;;;13.58;69.07;101295.15;107246;1257;97825;-60
2023/06/01 03:06:43;;;;;;;18.00;5.70;;;;;;;13.58;69.08;101299.66;107389;1257;97873;-60
2023/06/01 03:09:15;;;;;;;11.50;5.60;;;;;;;13.60;68.94;101296.84;107345;1257;112043;-58
2023/06/01 03:12:07;;;;;;;14.80;5.00;;;;;;;13.58;69.11;101298.61;107377;1254;110026;-58
2023/06/01 03:14:36;;;;;;;10.00;5.40;;;;;;;13.56;69.30;101299.70;107387;1257;108428;-58
2023/06/01 03:17:06;;;;;;;18.60;6.10;;;;;;;13.54;69.26;101302.06;107376;1257;97819;-60
2023/06/01 03:19:34;;;;;;;12.20;5.30;;;;;;;13.53;69.30;101301.95;107382;1255;97816;-60
2023/06/01 03:22:08;;;;;;;21.90;6.70;;;;;;;13.56;69.46;101307.49;107290;1255;111330;-60
2023/06/01 03:24:41;;;;;;;13.30;5.30;;;;;;;13.58;69.28;101304.91;107145;1254;109986;-59
2023/06/01 03:27:13;;;;;;;10.80;4.80;;;;;;;13.59;69.45;101311.89;107391;1257;108317;-59
2023/06/01 03:29:41;;;;;;;13.80;4.90;;;;;;;13.61;69.43;101309.14;107323;1257;97861;-59
2023/06/01 03:32:10;;;;;;;15.60;5.30;;;;;;;13.65;69.42;101312.92;107357;1255;97829;-59
2023/06/01 03:34:40;;;;;;;19.80;7.00;;;;;;;13.70;69.30;101311.58;107267;1261;110694;-59
2023/06/01 03:37:08;;;;;;;13.50;5.10;;;;;;;13.76;69.33;101313.30;107358;1257;108858;-60
2023/06/01 03:39:39;;;;;;;14.00;5.60;;;;;;;13.84;69.31;101313.36;107374;1257;107726;-59
2023/06/01 03:42:10;;;;;;;22.00;5.90;;;;;;;13.91;69.02;101311.83;107331;1254;98094;-59
2023/06/01 03:44:41;;;;;;;9.90;5.40;;;;;;;13.98;69.00;101309.89;107239;1257;97818;-59
2023/06/01 03:47:09;;;;;;;13.00;5.80;;;;;;;14.06;68.85;101314.01;107306;1255;111064;-60
2023/06/01 03:49:38;;;;;;;18.30;6.40;;;;;;;14.15;68.79;101312.05;107293;1254;109021;-59
2023/06/01 03:52:09;;;;;;;19.80;5.80;;;;;;;14.23;68.29;101311.83;107405;1254;108154;-60
2023/06/01 03:54:38;;;;;;;13.30;5.60;;;;;;;14.28;67.44;101307.62;107368;1257;97832;-59
2023/06/01 03:57:14;;;;;;;17.80;6.40;;;;;;;14.35;67.37;101309.08;107336;1256;97831;-59
2023/06/01 03:59:42;;;;;;;21.70;6.60;;;;;;;14.41;66.86;101309.77;107219;1256;111984;-60
2023/06/01 04:02:11;;;;;;;22.50;5.80;;;;;;;14.44;66.40;101310.36;107335;1254;109030;-60
2023/06/01 04:04:45;;;;;;;15.00;6.00;;;;;;;14.49;65.91;101309.73;107358;1257;109704;-61
2023/06/01 04:07:21;;;;;;;17.50;6.40;;;;;;;14.54;65.68;101314.59;107241;1257;98045;-61
2023/06/01 04:09:50;;;;;;;14.60;6.20;;;;;;;14.57;65.18;101310.36;107333;1257;98465;-60
2023/06/01 04:12:19;;;;;;;14.70;6.80;;;;;;;14.60;64.82;101314.09;107258;1261;113215;-60
2023/06/01 04:14:47;;;;;;;20.10;6.70;;;;;;;14.61;64.64;101313.96;107380;1257;109833;-61
2023/06/01 04:17:16;;;;;;;19.00;7.00;;;;;;;14.65;64.60;101313.95;107343;1254;106677;-61
2023/06/01 04:19:50;;;;;;;17.00;6.40;;;;;;;14.72;64.50;101316.20;107207;1257;97859;-60
2023/06/01 04:22:25;;;;;;;18.90;5.90;;;;;;;14.78;64.47;101308.54;107292;1257;97924;-60
2023/06/01 04:24:58;;;;;;;19.60;6.50;;;;;;;14.90;64.16;101312.67;107261;1257;111248;-62
2023/06/01 04:27:27;;;;;;;18.40;6.00;;;;;;;14.96;63.84;101310.42;107424;1254;108677;-62
2023/06/01 04:29:58;;;;;;;21.70;8.20;;;;;;;14.99;63.36;101311.15;107363;1255;108913;-61
2023/06/01 04:32:27;;;;;;;19.80;6.70;;;;;;;15.04;63.07;101316.16;107389;1254;97719;-61
2023/06/01 04:34:56;;;;;;;21.40;6.60;;;;;;;15.07;62.72;101315.27;107395;1257;97733;-61
2023/06/01 04:37:25;;;;;;;17.00;6.00;;;;;;;15.11;62.51;101313.13;107272;1257;111771;-60
2023/06/01 04:39:54;;;;;;;23.70;6.40;;;;;;;15.13;62.22;101312.39;107281;1254;110010;-59
2023/06/01 04:42:22;;;;;;;13.80;6.70;;;;;;;15.15;61.95;101310.92;107245;1260;108173;-60
2023/06/01 04:44:51;;;;;;;19.80;6.50;;;;;;;15.15;61.42;101309.81;107353;1257;97819;-60
2023/06/01 04:47:21;;;;;;;16.30;6.00;;;;;;;15.19;61.56;101308.56;107291;1262;97819;-61
2023/06/01 04:49:56;;;;;;;16.80;5.70;;;;;;;15.25;61.33;101310.48;107263;1257;112117;-60
2023/06/01 04:52:24;;;;;;;17.10;5.40;;;;;;;15.28;60.54;101309.08;107388;1254;109897;-60
2023/06/01 04:54:53;;;;;;;21.30;5.80;;;;;;;15.30;60.29;101302.04;107349;1259;107921;-60
2023/06/01 04:57:24;;;;;;;20.40;5.70;;;;;;;15.35;60.33;101308.73;107354;1254;97843;-60
2023/06/01 04:59:57;;;;;;;19.50;6.30;;;;;;;15.39;60.36;101309.46;107397;1254;97812;-61
2023/06/01 05:02:26;;;;;;;16.60;5.30;;;;;;;15.43;60.48;101313.41;107405;1254;112292;-61
2023/06/01 05:04:55;;;;;;;16.50;5.90;;;;;;;15.51;59.94;101312.57;107400;1253;108656;-60
2023/06/01 05:07:24;;;;;;;21.10;5.30;;;;;;;15.56;59.63;101309.77;107374;1253;108574;-60
2023/06/01 05:09:53;;;;;;;24.10;5.60;;;;;;;15.59;59.19;101309.17;107432;1254;98103;-61
2023/06/01 05:12:21;;;;;;;12.30;4.70;;;;;;;15.62;58.93;101310.85;107456;1254;98455;-60
2023/06/01 05:14:50;;;;;;;27.00;4.80;;;;;;;15.65;58.54;101310.38;107350;1260;111425;-64
2023/06/01 05:17:22;;;;;;;15.70;4.90;;;;;;;15.70;58.47;101311.03;107455;1254;109817;-62
2023/06/01 05:19:56;;;;;;;18.80;4.90;;;;;;;15.71;58.43;101301.14;107196;1257;107843;-65
2023/06/01 05:22:25;;;;;;;15.30;5.80;;;;;;;15.82;58.62;101302.39;107070;1254;97772;-60
2023/06/01 05:24:55;;;;;;;16.70;5.50;;;;;;;15.90;58.36;101297.29;107300;1254;98142;-60
2023/06/01 05:27:24;;;;;;;14.60;6.10;;;;;;;15.95;57.96;101298.48;107200;1254;110825;-60
2023/06/01 05:29:53;;;;;;;15.90;5.60;;;;;;;16.03;57.94;101297.95;107400;1259;110021;-60
2023/06/01 05:32:23;;;;;;;20.00;8.70;;;;;;;16.11;57.88;101298.58;107387;1259;108933;-60
2023/06/01 05:34:53;;;;;;;22.10;5.90;;;;;;;16.17;57.72;101297.53;107278;1254;97886;-60
2023/06/01 05:37:21;;;;;;;17.40;6.50;;;;;;;16.24;57.43;101300.28;107403;1254;97695;-60
2023/06/01 05:39:50;;;;;;;17.10;6.40;;;;;;;16.30;57.01;101295.68;107443;1254;112332;-60
2023/06/01 05:42:19;;;;;;;23.70;6.30;;;;;;;16.38;57.03;101297.17;107428;1255;109075;-60
2023/06/01 05:44:47;;;;;;;35.90;11.80;;;;;;;16.47;57.10;101294.07;107390;1254;107742;-61
2023/06/01 05:47:16;;;;;;;20.00;6.90;;;;;;;16.55;57.20;101296.41;107222;1259;97917;-62
2023/06/01 05:49:45;;;;;;;22.80;8.70;;;;;;;16.63;56.50;101296.20;107395;1256;97842;-61
2023/06/01 05:52:14;;;;;;;19.60;5.70;;;;;;;16.70;56.28;101294.92;107414;1254;110757;-61
2023/06/01 05:54:43;;;;;;;28.20;8.70;;;;;;;16.78;56.14;101295.54;107405;1259;109464;-61
2023/06/01 05:57:12;;;;;;;25.70;7.30;;;;;;;16.86;56.12;101284.88;107461;1254;107648;-61
2023/06/01 05:59:42;;;;;;;13.80;6.60;;;;;;;16.95;56.03;101283.98;107237;1255;97832;-60
2023/06/01 06:02:10;;;;;;;30.00;8.60;;;;;;;17.03;55.40;101287.61;107424;1254;97816;-60
2023/06/01 06:04:40;;;;;;;19.30;6.00;;;;;;;17.11;55.22;101285.32;107431;1257;110770;-62
2023/06/01 06:07:08;;;;;;;24.40;7.00;;;;;;;17.18;54.73;101286.95;107428;1254;110238;-59
2023/06/01 06:09:36;;;;;;;17.90;6.20;;;;;;;17.25;54.63;101285.68;107436;1259;107040;-61
2023/06/01 06:12:06;;;;;;;16.60;6.80;;;;;;;17.31;54.75;101286.36;107359;1254;97892;-60
2023/06/01 06:14:34;;;;;;;12.60;5.80;;;;;;;17.40;54.54;101288.35;107473;1255;97701;-62
2023/06/01 06:17:03;;;;;;;18.90;6.30;;;;;;;17.50;54.33;101291.24;107450;1258;111708;-62
2023/06/01 06:19:32;;;;;;;22.00;5.80;;;;;;;17.60;53.96;101288.19;107381;1254;108936;-61
2023/06/01 06:22:00;;;;;;;14.60;5.60;;;;;;;17.71;54.20;101286.08;107215;1259;109010;-61
2023/06/01 06:24:29;;;;;;;18.20;5.50;;;;;;;17.78;53.89;101283.95;107368;1256;97864;-64
2023/06/01 06:26:57;;;;;;;28.00;6.30;;;;;;;17.86;53.96;101280.75;107392;1258;98067;-61
2023/06/01 06:29:29;;;;;;;20.20;5.40;;;;;;;17.95;53.25;101281.23;107428;1259;111293;-61
2023/06/01 06:31:58;;;;;;;25.20;6.20;;;;;;;18.04;52.30;101283.24;107417;1259;109021;-61
2023/06/01 06:34:33;;;;;;;21.70;4.50;;;;;;;18.14;52.24;101288.02;107439;1254;107857;-61
2023/06/01 06:37:04;;;;;;;22.40;5.30;;;;;;;18.22;52.35;101287.80;107421;1258;97710;-60
2023/06/01 06:39:33;;;;;;;17.40;4.90;;;;;;;18.31;51.75;101286.61;107292;1254;97720;-63
2023/06/01 06:42:02;;;;;;;14.20;4.70;;;;;;;18.39;51.12;101285.16;107464;1254;112540;-60
2023/06/01 06:44:31;;;;;;;23.10;5.90;;;;;;;18.47;50.52;101284.96;107458;1254;109832;-61
2023/06/01 06:47:02;;;;;;;13.80;5.10;;;;;;;18.56;50.84;101284.83;107235;1260;107491;-61
2023/06/01 06:49:31;;;;;;;16.10;5.30;;;;;;;18.65;50.27;101282.95;107455;1260;97949;-62
2023/06/01 06:51:59;;;;;;;17.90;5.60;;;;;;;18.72;49.04;101286.48;107477;1260;97703;-61
2023/06/01 06:54:27;;;;;;;15.40;5.60;;;;;;;18.82;49.45;101284.64;107492;1260;111735;-61
2023/06/01 06:56:56;;;;;;;14.60;4.60;;;;;;;18.92;49.39;101276.79;107456;1257;109964;-60
2023/06/01 06:59:24;;;;;;;15.80;4.50;;;;;;;19.00;48.94;101279.85;107389;1254;108914;-60
2023/06/01 07:01:52;;;;;;;22.40;4.60;;;;;;;19.10;48.46;101278.52;107398;1254;97842;-61
2023/06/01 07:04:22;;;;;;;25.10;4.90;;;;;;;19.19;48.56;101276.55;107438;1259;98366;-61
2023/06/01 07:06:51;;;;;;;13.30;5.80;;;;;;;19.29;48.50;101275.05;107481;1254;110972;-60
2023/06/01 07:09:20;;;;;;;21.00;5.30;;;;;;;19.39;48.59;101277.35;107468;1254;108702;-62
2023/06/01 07:11:48;;;;;;;11.10;5.30;;;;;;;19.49;48.25;101279.23;107464;1254;108156;-63
2023/06/01 07:14:17;;;;;;;12.90;5.20;;;;;;;19.59;47.54;101278.64;107425;1255;97808;-64
2023/06/01 07:16:46;;;;;;;23.40;5.80;;;;;;;19.66;47.12;101277.70;107261;1255;97730;-61
2023/06/01 07:19:14;;;;;;;21.60;8.00;;;;;;;19.75;46.83;101276.64;107461;1259;111322;-61
2023/06/01 07:21:43;;;;;;;15.00;5.00;;;;;;;19.84;46.48;101280.40;107308;1260;110003;-60
2023/06/01 07:24:11;;;;;;;24.60;8.50;;;;;;;19.92;46.68;101274.46;107435;1260;107547;-62
2023/06/01 07:26:40;;;;;;;29.00;13.50;;;;;;;20.01;46.23;101275.58;107419;1254;97922;-63
2023/06/01 07:29:09;;;;;;;15.40;5.30;;;;;;;20.10;45.82;101275.04;107439;1254;98389;-62
2023/06/01 07:31:38;;;;;;;16.00;5.00;;;;;;;20.21;45.60;101278.64;107467;1254;110836;-62
2023/06/01 07:34:07;;;;;;;18.40;4.20;;;;;;;20.32;44.93;101276.03;107434;1254;108602;-60
2023/06/01 07:36:36;;;;;;;22.10;5.10;;;;;;;20.43;44.72;101275.92;107425;1260;108361;-61
2023/06/01 07:39:06;;;;;;;16.30;4.50;;;;;;;20.55;44.55;101273.13;107445;1254;97899;-61
2023/06/01 07:41:35;;;;;;;11.00;4.00;;;;;;;20.62;44.14;101271.38;107455;1258;97911;-62
2023/06/01 07:44:05;;;;;;;9.10;3.80;;;;;;;20.72;43.11;101269.58;107444;1255;110779;-61
2023/06/01 07:46:33;;;;;;;10.80;4.10;;;;;;;20.81;42.41;101268.65;107426;1255;109124;-60
2023/06/01 07:49:03;;;;;;;16.80;4.10;;;;;;;20.92;41.80;101263.36;107274;1254;108098;-61
2023/06/01 07:51:31;;;;;;;10.10;4.00;;;;;;;21.03;41.43;101262.59;107403;1254;97918;-62
2023/06/01 07:54:01;;;;;;;19.30;4.70;;;;;;;21.09;41.81;101258.15;107406;1257;97736;-61
2023/06/01 07:56:29;;;;;;;23.50;5.20;;;;;;;21.19;42.49;101259.67;107441;1254;111757;-61
2023/06/01 07:58:57;;;;;;;6.70;4.20;;;;;;;21.30;42.36;101258.44;107432;1255;109859;-63
2023/06/01 08:01:26;;;;;;;18.30;4.10;;;;;;;21.42;41.80;101255.77;106859;1256;716398;-61
2023/06/01 08:03:56;;;;;;;24.10;4.40;;;;;;;21.56;41.76;101252.67;107468;1254;97800;-61
2023/06/01 08:06:24;;;;;;;17.70;3.60;;;;;;;21.69;41.33;101257.19;107439;1257;97727;-66
2023/06/01 08:08:53;;;;;;;13.00;4.40;;;;;;;21.80;40.85;101254.48;107239;1255;111298;-63
2023/06/01 08:11:23;;;;;;;14.00;4.00;;;;;;;21.90;40.97;101246.84;107391;1258;109754;-62
2023/06/01 08:13:51;;;;;;;14.70;4.10;;;;;;;22.01;40.88;101248.60;107393;1254;108419;-60
2023/06/01 08:16:20;;;;;;;12.80;4.20;;;;;;;22.09;39.38;101245.45;107391;1254;97842;-61
2023/06/01 08:18:50;;;;;;;17.50;3.80;;;;;;;22.18;39.46;101244.02;107434;1255;99867;-62
2023/06/01 08:21:19;;;;;;;18.70;4.40;;;;;;;22.30;39.70;101239.04;107484;1254;111765;-60
2023/06/01 08:23:47;;;;;;;15.90;3.50;;;;;;;22.42;39.68;101238.06;107451;1255;108923;-61
2023/06/01 08:26:16;;;;;;;13.90;3.20;;;;;;;22.55;39.46;101237.96;107350;1254;108680;-61
2023/06/01 08:28:51;;;;;;;9.40;2.70;;;;;;;22.73;37.39;101235.74;107396;1257;97848;-61
2023/06/01 08:31:25;;;;;;;7.40;2.40;;;;;;;22.92;35.53;101233.02;107372;1257;98395;-62
2023/06/01 08:33:54;;;;;;;5.50;2.40;;;;;;;23.06;34.68;101232.71;107396;1257;110588;-62
2023/06/01 08:36:23;;;;;;;10.20;2.70;;;;;;;23.19;33.16;101232.61;107396;1258;109619;-62
2023/06/01 08:38:55;;;;;;;9.00;2.60;;;;;;;23.28;33.00;101228.67;107277;1260;108752;-61
2023/06/01 08:41:50;;;;;;;7.80;2.70;;;;;;;23.36;33.19;101229.52;107414;1256;97832;-60
2023/06/01 08:44:22;;;;;;;15.90;3.20;;;;;;;23.51;33.80;101228.77;107432;1254;98376;-61
2023/06/01 08:46:52;;;;;;;11.60;2.90;;;;;;;23.69;34.53;101225.92;107446;1257;111824;-62
2023/06/01 08:49:22;;;;;;;9.60;3.50;;;;;;;23.88;34.56;101227.55;107419;1258;108819;-60
2023/06/01 08:51:56;;;;;;;11.10;3.40;;;;;;;24.09;34.43;101224.96;107433;1254;106695;-62
2023/06/01 08:54:26;;;;;;;14.50;3.30;;;;;;;24.26;34.68;101219.02;107436;1254;97813;-61
2023/06/01 08:56:55;;;;;;;12.50;3.70;;;;;;;24.43;34.07;101217.29;107324;1254;97938;-61
2023/06/01 08:59:23;;;;;;;16.40;3.50;;;;;;;24.55;33.70;101213.96;107459;1254;111270;-60
2023/06/01 09:01:53;;;;;;;17.50;3.60;;;;;;;24.64;32.32;101206.86;107435;1254;110632;-62
2023/06/01 09:04:21;;;;;;;9.60;2.70;;;;;;;24.74;32.28;101207.19;107494;1257;105497;-61
2023/06/01 09:06:50;;;;;;;9.60;3.00;;;;;;;24.90;32.17;101202.67;107297;1254;97837;-62
2023/06/01 09:09:20;;;;;;;7.20;3.60;;;;;;;25.10;32.32;101201.86;107444;1254;98347;-61
2023/06/01 09:12:26;;;;;;;10.70;3.70;;;;;;;25.32;32.84;101195.17;107369;1254;111662;-62
2023/06/01 09:15:11;;;;;;;10.10;3.40;;;;;;;25.65;31.86;101190.21;107399;1254;108775;-64
2023/06/01 09:17:57;;;;;;;8.00;3.20;;;;;;;25.92;31.80;101184.88;107398;1257;108687;-63
2023/06/01 09:20:28;;;;;;;11.20;3.80;;;;;;;26.20;31.82;101181.16;107283;1254;97852;-61
2023/06/01 09:22:56;;;;;;;10.40;3.80;;;;;;;26.50;31.53;101180.45;107340;1254;98360;-60
2023/06/01 09:25:27;;;;;;;8.10;3.10;;;;;;;26.72;30.41;101180.22;107428;1257;112414;-61
2023/06/01 09:28:01;;;;;;;9.70;3.30;;;;;;;26.88;30.86;101181.84;107432;1257;110016;-62
2023/06/01 09:30:42;;;;;;;;;;;;;;;27.18;30.25;101179.55;107463;1254;108919;-61
2023/06/01 09:33:13;;;;;;;19.80;4.20;;;;;;;27.50;30.18;101178.22;107429;1254;97826;-64
2023/06/01 09:36:00;;;;;;;12.90;2.80;;;;;;;27.79;30.55;101170.04;107430;1254;97806;-61
2023/06/01 09:38:29;;;;;;;21.20;3.80;;;;;;;28.21;30.22;101168.52;107451;1254;112447;-61
2023/06/01 09:41:03;;;;;;;9.40;3.10;;;;;;;28.59;30.03;101162.97;107420;1254;109304;-61
2023/06/01 09:43:36;;;;;;;11.40;3.40;;;;;;;28.99;27.94;101164.20;107401;1253;108685;-61
2023/06/01 09:46:09;;;;;;;19.20;4.00;;;;;;;29.19;27.51;101162.65;107438;1254;97930;-60
2023/06/01 09:48:38;;;;;;;9.10;3.40;;;;;;;29.42;26.27;101158.23;107451;1254;97935;-60
2023/06/01 09:51:30;;;;;;;11.70;3.90;;;;;;;29.56;26.24;101151.06;107445;1254;111354;-61
2023/06/01 09:54:03;;;;;;;8.20;3.10;;;;;;;29.88;26.05;101152.52;107424;1254;109675;-63
2023/06/01 09:56:59;;;;;;;12.10;2.90;;;;;;;30.10;26.02;101153.81;107298;1254;107513;-61
2023/06/01 09:59:46;;;;;;;7.20;3.20;;;;;;;30.31;25.01;101142.74;107258;1254;97845;-61
2023/06/01 10:02:20;;;;;;;8.70;3.30;;;;;;;30.38;24.63;101139.31;107380;1254;97838;-61
2023/06/01 10:04:51;;;;;;;11.50;4.20;;;;;;;30.57;25.14;101143.16;107414;1254;111856;-62
2023/06/01 10:07:22;;;;;;;12.90;3.10;;;;;;;30.84;25.30;101136.20;107402;1254;109036;-64
2023/06/01 10:09:55;;;;;;;14.40;3.20;;;;;;;31.07;24.50;101139.01;107430;1257;107276;-63
2023/06/01 10:12:25;;;;;;;9.90;3.20;;;;;;;31.11;23.93;101141.73;107440;1254;97844;-60
2023/06/01 10:14:56;;;;;;;8.20;2.80;;;;;;;31.49;24.14;101134.78;107366;1254;97914;-63
2023/06/01 10:17:26;;;;;;;10.80;2.90;;;;;;;32.15;24.18;101125.71;107382;1254;111018;-61
2023/06/01 10:19:56;;;;;;;10.10;3.00;;;;;;;32.84;23.29;101120.84;107522;1254;108861;-60
2023/06/01 10:22:25;;;;;;;26.00;3.80;;;;;;;33.45;23.12;101118.92;107524;1254;107745;-61
2023/06/01 10:25:00;;;;;;;9.20;3.20;;;;;;;34.03;22.54;101116.58;107460;1254;97815;-62
2023/06/01 10:27:57;;;;;;;15.30;3.50;;;;;;;34.27;22.09;101117.23;107476;1257;98511;-62
2023/06/01 10:30:26;;;;;;;16.10;3.90;;;;;;;34.22;22.21;101114.02;107426;1254;110931;-61
2023/06/01 10:32:54;;;;;;;8.10;2.50;;;;;;;33.83;21.35;101107.23;107376;1254;109581;-61
2023/06/01 10:35:26;;;;;;;9.20;2.50;;;;;;;34.06;20.97;101114.17;107407;1254;107251;-61
2023/06/01 10:38:07;;;;;;;9.30;2.60;;;;;;;34.07;19.95;101108.86;107440;1254;97687;-63
2023/06/01 10:40:46;;;;;;;6.90;2.40;;;;;;;34.37;20.92;101106.08;107491;1254;98367;-62
2023/06/01 10:43:35;;;;;;;12.70;2.40;;;;;;;34.88;20.20;101100.67;107439;1254;111626;-60
2023/06/01 10:46:34;;;;;;;10.50;3.20;;;;;;;35.50;19.49;101094.27;107424;1254;108772;-62
2023/06/01 10:49:04;;;;;;;6.00;1.80;;;;;;;36.15;19.63;101090.40;107408;1254;108102;-61
2023/06/01 10:51:33;;;;;;;5.40;2.30;;;;;;;36.48;19.04;101086.30;107415;1254;97895;-60
2023/06/01 10:54:29;;;;;;;12.30;3.00;;;;;;;36.89;18.91;101076.48;107464;1254;97726;-61
2023/06/01 10:57:22;;;;;;;11.20;2.70;;;;;;;37.40;17.83;101071.23;107246;1254;111776;-60
2023/06/01 11:00:28;;;;;;;5.20;2.00;;;;;;;37.52;17.56;101069.82;107437;1254;109725;-61
2023/06/01 11:03:04;;;;;;;11.70;2.20;;;;;;;37.71;17.18;101064.54;107458;1254;108376;-61
2023/06/01 11:05:43;;;;;;;7.20;2.20;;;;;;;38.07;16.98;101061.36;107444;1257;97924;-63
2023/06/01 11:08:21;;;;;;;11.80;2.80;;;;;;;38.32;17.22;101051.73;107451;1254;97720;-62
2023/06/01 11:10:50;;;;;;;11.20;2.60;;;;;;;38.14;16.29;101049.02;107445;1254;111938;-61
2023/06/01 11:13:24;;;;;;;;;;;;;;;37.99;17.01;101049.25;107283;1254;109316;-62
2023/06/01 11:16:13;;;;;;;6.70;2.50;;;;;;;38.17;16.86;101045.94;107402;1254;106729;-63
2023/06/01 11:19:06;;;;;;;12.10;2.90;;;;;;;38.43;16.82;101041.21;107408;1254;97854;-63
2023/06/01 11:21:36;;;;;;;8.00;2.20;;;;;;;38.79;17.06;101038.55;107434;1254;97938;-61
2023/06/01 11:24:14;;;;;;;11.00;2.70;;;;;;;38.53;16.70;101038.08;107459;1253;112363;-61
2023/06/01 11:26:44;;;;;;;13.60;2.60;;;;;;;38.90;16.10;101034.61;107433;1257;109035;-61
2023/06/01 11:29:25;;;;;;;8.00;2.40;;;;;;;39.35;15.52;101030.95;107377;1254;108037;-60